Time;durP1;ratioP1;P1;durP2;ratioP2;P2;SDS_P1;SDS_P2;PMS_P1;PMS_P2;Temp;Humidity;BMP_temperature;BMP_pressure;BME280_temperature;BME280_humidity;BME280_pressure;Samples;Min_cycle;Max_cycle;Signal;HPM_P1;HPM_P2
2021/08/30 00:00:28;;;;;;;4.93;2.50;;;;;;;;;;7369623;19;20491;-62
2021/08/30 00:02:54;;;;;;;7.22;2.92;;;;;;;;;;7371040;19;20629;-63
2021/08/30 00:05:20;;;;;;;4.03;2.40;;;;;;;;;;7369137;19;20017;-63
2021/08/30 00:07:46;;;;;;;6.45;2.65;;;;;;;;;;7366396;19;20018;-63
2021/08/30 00:10:12;;;;;;;5.57;2.50;;;;;;;;;;7367428;19;20018;-63
2021/08/30 00:12:40;;;;;;;6.03;3.97;;;;;;;;;;7368369;19;20726;-63
2021/08/30 00:15:06;;;;;;;4.53;2.92;;;;;;;;;;7366414;19;20015;-63
2021/08/30 00:17:32;;;;;;;6.30;2.92;;;;;;;;;;7369459;19;20031;-63
2021/08/30 00:19:58;;;;;;;6.07;3.00;;;;;;;;;;7369429;19;20941;-63
2021/08/30 00:22:24;;;;;;;6.15;2.97;;;;;;;;;;7366093;19;20579;-63
2021/08/30 00:24:50;;;;;;;4.20;2.85;;;;;;;;;;7369178;19;20036;-63
2021/08/30 00:27:16;;;;;;;4.32;3.00;;;;;;;;;;7368136;19;20010;-63
2021/08/30 00:29:42;;;;;;;9.07;3.67;;;;;;;;;;7369999;19;20022;-63
2021/08/30 00:32:08;;;;;;;6.03;2.60;;;;;;;;;;7368296;19;20010;-63
2021/08/30 00:34:34;;;;;;;3.55;2.33;;;;;;;;;;7369868;19;20010;-63
2021/08/30 00:37:00;;;;;;;6.43;2.90;;;;;;;;;;7368153;19;20010;-63
2021/08/30 00:39:26;;;;;;;3.70;2.63;;;;;;;;;;7368067;19;20049;-62
2021/08/30 00:41:52;;;;;;;3.42;2.35;;;;;;;;;;7369491;19;20019;-63
2021/08/30 00:44:18;;;;;;;5.13;2.40;;;;;;;;;;7365289;19;20014;-63
2021/08/30 00:46:44;;;;;;;3.25;2.42;;;;;;;;;;7368822;19;20006;-63
2021/08/30 00:49:09;;;;;;;4.22;2.90;;;;;;;;;;7364981;19;20455;-63
2021/08/30 00:51:35;;;;;;;4.88;2.88;;;;;;;;;;7373742;19;20015;-63
2021/08/30 00:54:01;;;;;;;3.83;2.67;;;;;;;;;;7375022;19;20019;-63
2021/08/30 00:59:19;;;;;;;4.38;3.20;;;;;;;;;;7377832;19;20034;-63
2021/08/30 01:01:45;;;;;;;5.43;3.47;;;;;;;;;;7375861;19;20082;-63
2021/08/30 01:04:11;;;;;;;4.93;3.13;;;;;;;;;;7378220;19;20374;-63
2021/08/30 01:06:38;;;;;;;7.35;3.47;;;;;;;;;;7377367;19;20018;-63
2021/08/30 01:09:04;;;;;;;9.20;3.53;;;;;;;;;;7377047;19;20539;-63
2021/08/30 01:11:30;;;;;;;10.38;3.22;;;;;;;;;;7375258;19;20018;-63
2021/08/30 01:13:57;;;;;;;13.13;5.25;;;;;;;;;;7376499;19;20052;-63
2021/08/30 01:16:23;;;;;;;7.88;4.47;;;;;;;;;;7374439;19;20994;-63
2021/08/30 01:18:49;;;;;;;13.60;5.55;;;;;;;;;;7370563;19;20109;-63
2021/08/30 01:21:15;;;;;;;11.57;4.93;;;;;;;;;;7374678;19;20106;-63
2021/08/30 01:23:41;;;;;;;9.35;4.80;;;;;;;;;;7372750;19;20367;-63
2021/08/30 01:26:07;;;;;;;12.45;5.90;;;;;;;;;;7375888;19;20026;-63
2021/08/30 01:28:34;;;;;;;6.90;4.18;;;;;;;;;;7372831;19;20014;-63
2021/08/30 01:31:00;;;;;;;6.18;4.20;;;;;;;;;;7375115;19;20026;-63
2021/08/30 01:33:26;;;;;;;7.50;3.97;;;;;;;;;;7374596;19;20014;-63
2021/08/30 01:35:52;;;;;;;15.98;5.60;;;;;;;;;;7373342;19;20662;-63
2021/08/30 01:38:18;;;;;;;14.50;6.70;;;;;;;;;;7373185;19;20125;-63
2021/08/30 01:40:44;;;;;;;5.40;3.15;;;;;;;;;;7372109;19;20824;-63
2021/08/30 01:43:11;;;;;;;5.60;3.83;;;;;;;;;;7374232;19;20022;-63
2021/08/30 01:45:37;;;;;;;8.32;4.22;;;;;;;;;;7374991;19;20053;-62
2021/08/30 01:48:03;;;;;;;8.88;4.45;;;;;;;;;;7375420;19;20037;-63
2021/08/30 01:50:30;;;;;;;6.95;4.13;;;;;;;;;;7375041;19;20021;-63
2021/08/30 01:52:56;;;;;;;6.85;4.55;;;;;;;;;;7373456;19;20018;-63
2021/08/30 02:03:08;;;;;;;9.85;5.40;;;;;;;;;;7374907;19;20042;-63
2021/08/30 02:05:34;;;;;;;8.60;4.78;;;;;;;;;;7376448;19;20014;-63
2021/08/30 02:08:00;;;;;;;11.50;5.45;;;;;;;;;;7374970;19;20015;-63
2021/08/30 02:10:26;;;;;;;9.25;5.20;;;;;;;;;;7375021;19;20014;-63
2021/08/30 02:12:52;;;;;;;8.23;4.95;;;;;;;;;;7372319;19;20019;-63
2021/08/30 02:15:19;;;;;;;9.07;5.43;;;;;;;;;;7374779;19;20023;-63
2021/08/30 02:17:45;;;;;;;11.35;5.93;;;;;;;;;;7374836;19;20022;-63
2021/08/30 02:20:12;;;;;;;8.90;5.07;;;;;;;;;;7375070;19;20015;-63
2021/08/30 02:22:38;;;;;;;8.18;5.05;;;;;;;;;;7373573;19;20090;-63
2021/08/30 02:25:04;;;;;;;10.82;5.20;;;;;;;;;;7374167;19;20432;-63
2021/08/30 02:27:30;;;;;;;9.57;5.68;;;;;;;;;;7374103;19;20015;-63
2021/08/30 02:29:56;;;;;;;12.27;4.95;;;;;;;;;;7370036;19;20014;-63
2021/08/30 02:32:22;;;;;;;8.55;5.05;;;;;;;;;;7373181;19;20015;-63
2021/08/30 02:34:48;;;;;;;8.32;4.53;;;;;;;;;;7367739;19;20018;-63
2021/08/30 02:37:14;;;;;;;11.48;5.38;;;;;;;;;;7373763;19;20037;-63
2021/08/30 02:39:41;;;;;;;11.63;4.90;;;;;;;;;;7374251;19;20140;-63
2021/08/30 02:42:07;;;;;;;7.68;4.22;;;;;;;;;;7371434;19;20014;-63
2021/08/30 02:44:33;;;;;;;6.82;4.40;;;;;;;;;;7374907;19;20090;-63
2021/08/30 02:46:59;;;;;;;7.50;4.53;;;;;;;;;;7371946;19;20717;-62
2021/08/30 02:49:25;;;;;;;6.10;3.97;;;;;;;;;;7374087;19;20015;-63
2021/08/30 02:51:51;;;;;;;6.72;4.05;;;;;;;;;;7371421;19;20006;-63
2021/08/30 02:54:17;;;;;;;5.57;3.88;;;;;;;;;;7373651;19;20018;-63
2021/08/30 02:56:43;;;;;;;6.88;4.03;;;;;;;;;;7373264;19;20041;-63
2021/08/30 02:59:09;;;;;;;8.93;4.43;;;;;;;;;;7371140;19;20081;-63
2021/08/30 03:01:35;;;;;;;8.45;4.55;;;;;;;;;;7372200;19;20030;-62
2021/08/30 03:04:01;;;;;;;7.38;4.85;;;;;;;;;;7371132;19;20013;-63
2021/08/30 03:06:27;;;;;;;13.48;6.03;;;;;;;;;;7373006;19;20021;-63
2021/08/30 03:08:53;;;;;;;6.90;4.47;;;;;;;;;;7371013;19;20635;-63
2021/08/30 03:11:19;;;;;;;12.18;5.40;;;;;;;;;;7371806;19;20018;-62
2021/08/30 03:13:45;;;;;;;9.27;4.80;;;;;;;;;;7369846;19;20022;-62
2021/08/30 03:16:11;;;;;;;8.30;5.05;;;;;;;;;;7369512;19;20347;-63
2021/08/30 03:18:37;;;;;;;11.27;5.05;;;;;;;;;;7371149;19;20026;-63
2021/08/30 03:21:03;;;;;;;8.90;5.53;;;;;;;;;;7369986;19;20046;-63
2021/08/30 03:23:29;;;;;;;10.13;4.72;;;;;;;;;;7371760;19;20031;-63
2021/08/30 03:25:55;;;;;;;9.85;5.93;;;;;;;;;;7370952;19;20049;-63
2021/08/30 03:28:21;;;;;;;7.78;4.75;;;;;;;;;;7370581;19;20022;-62
2021/08/30 03:30:48;;;;;;;9.68;4.75;;;;;;;;;;7370858;19;20027;-63
2021/08/30 03:33:14;;;;;;;8.00;4.90;;;;;;;;;;7370214;19;20030;-63
2021/08/30 03:35:40;;;;;;;5.07;3.80;;;;;;;;;;7368720;19;20018;-62
2021/08/30 03:38:06;;;;;;;7.82;4.43;;;;;;;;;;7370213;19;20018;-62
2021/08/30 03:40:32;;;;;;;7.72;4.03;;;;;;;;;;7371203;19;20019;-62
2021/08/30 03:42:58;;;;;;;7.05;4.05;;;;;;;;;;7368271;19;20487;-62
2021/08/30 03:45:26;;;;;;;7.70;4.20;;;;;;;;;;7371178;19;20022;-62
2021/08/30 03:47:52;;;;;;;5.60;4.18;;;;;;;;;;7370894;19;20018;-63
2021/08/30 03:50:18;;;;;;;9.65;4.78;;;;;;;;;;7370496;19;20022;-62
2021/08/30 03:52:44;;;;;;;9.07;4.53;;;;;;;;;;7369223;19;20042;-62
2021/08/30 03:55:11;;;;;;;5.68;4.25;;;;;;;;;;7369434;19;20019;-62
2021/08/30 03:57:37;;;;;;;6.90;4.40;;;;;;;;;;7370655;19;20495;-62
2021/08/30 04:00:03;;;;;;;8.27;4.68;;;;;;;;;;7371809;19;20019;-62
2021/08/30 04:02:30;;;;;;;7.88;4.75;;;;;;;;;;7373213;19;20036;-63
2021/08/30 04:04:56;;;;;;;7.28;4.35;;;;;;;;;;7373892;19;20264;-63
2021/08/30 04:07:22;;;;;;;11.98;4.88;;;;;;;;;;7373625;19;20022;-62
2021/08/30 04:09:52;;;;;;;9.55;4.80;;;;;;;;;;7374683;19;20443;-62
2021/08/30 04:12:18;;;;;;;6.88;4.53;;;;;;;;;;7369575;19;20020;-63
2021/08/30 04:14:44;;;;;;;6.00;4.25;;;;;;;;;;7370841;19;20022;-62
2021/08/30 04:17:10;;;;;;;9.43;5.03;;;;;;;;;;7370066;19;20026;-62
2021/08/30 04:19:36;;;;;;;8.13;4.90;;;;;;;;;;7371457;19;20015;-62
2021/08/30 04:22:02;;;;;;;7.90;4.45;;;;;;;;;;7367351;19;20340;-62
2021/08/30 04:24:28;;;;;;;10.48;4.75;;;;;;;;;;7372852;19;20507;-62
2021/08/30 04:26:53;;;;;;;7.13;4.55;;;;;;;;;;7376350;19;20031;-62
2021/08/30 04:29:20;;;;;;;9.43;4.85;;;;;;;;;;7374530;19;20022;-62
2021/08/30 04:31:46;;;;;;;6.90;4.88;;;;;;;;;;7375064;19;20023;-63
2021/08/30 04:34:12;;;;;;;10.30;5.47;;;;;;;;;;7375069;19;20074;-63
2021/08/30 04:36:38;;;;;;;9.25;5.50;;;;;;;;;;7376639;19;20023;-62
2021/08/30 04:39:04;;;;;;;7.78;4.75;;;;;;;;;;7374980;19;20014;-63
2021/08/30 04:41:29;;;;;;;7.32;4.45;;;;;;;;;;7375239;19;20053;-62
2021/08/30 04:43:55;;;;;;;7.88;4.78;;;;;;;;;;7376187;19;20015;-62
2021/08/30 04:46:21;;;;;;;7.22;4.93;;;;;;;;;;7378743;19;20021;-62
2021/08/30 04:48:48;;;;;;;9.68;5.53;;;;;;;;;;7377037;19;20023;-62
2021/08/30 04:51:13;;;;;;;9.68;5.82;;;;;;;;;;7376405;19;20570;-62
2021/08/30 04:53:39;;;;;;;8.40;5.22;;;;;;;;;;7375858;19;20035;-62
2021/08/30 04:56:05;;;;;;;10.30;5.70;;;;;;;;;;7375708;19;20014;-62
2021/08/30 04:58:31;;;;;;;8.43;5.05;;;;;;;;;;7377880;19;20341;-62
2021/08/30 05:00:57;;;;;;;12.80;6.03;;;;;;;;;;7376003;19;20481;-62
2021/08/30 05:03:24;;;;;;;11.18;6.75;;;;;;;;;;7376201;19;20089;-62
2021/08/30 05:05:50;;;;;;;11.07;6.43;;;;;;;;;;7376416;19;20049;-63
2021/08/30 05:08:15;;;;;;;11.25;6.32;;;;;;;;;;7376462;19;20471;-62
2021/08/30 05:10:41;;;;;;;13.88;6.60;;;;;;;;;;7377100;19;20074;-62
2021/08/30 05:13:07;;;;;;;10.73;6.35;;;;;;;;;;7374419;19;20021;-63
2021/08/30 05:15:33;;;;;;;11.45;6.13;;;;;;;;;;7374118;19;20011;-62
2021/08/30 05:17:59;;;;;;;12.45;6.20;;;;;;;;;;7370682;19;20045;-62
2021/08/30 05:20:25;;;;;;;10.13;6.40;;;;;;;;;;7374553;19;20018;-62
2021/08/30 05:22:51;;;;;;;11.68;6.20;;;;;;;;;;7371304;19;20106;-62
2021/08/30 05:25:17;;;;;;;14.13;7.00;;;;;;;;;;7375059;19;20017;-62
2021/08/30 05:27:46;;;;;;;8.85;5.80;;;;;;;;;;7374052;19;20513;-62
2021/08/30 05:30:12;;;;;;;9.48;5.70;;;;;;;;;;7373614;19;20018;-62
2021/08/30 05:32:38;;;;;;;9.50;5.53;;;;;;;;;;7371960;19;20760;-62
2021/08/30 05:35:04;;;;;;;14.35;5.50;;;;;;;;;;7372093;19;20014;-62
2021/08/30 05:37:30;;;;;;;9.20;5.80;;;;;;;;;;7372797;19;20516;-62
2021/08/30 05:39:56;;;;;;;10.57;5.40;;;;;;;;;;7374642;19;20014;-62
2021/08/30 05:42:22;;;;;;;9.70;5.75;;;;;;;;;;7373363;19;20131;-62
2021/08/30 05:44:48;;;;;;;10.52;6.00;;;;;;;;;;7372584;19;20014;-62
2021/08/30 05:47:14;;;;;;;11.15;5.78;;;;;;;;;;7374115;19;20901;-62
2021/08/30 05:49:40;;;;;;;8.82;5.10;;;;;;;;;;7374619;19;20018;-63
2021/08/30 05:52:06;;;;;;;13.75;5.93;;;;;;;;;;7371705;19;20018;-62
2021/08/30 05:54:32;;;;;;;8.95;5.18;;;;;;;;;;7373561;19;20348;-63
2021/08/30 05:56:58;;;;;;;10.50;5.60;;;;;;;;;;7372033;19;20022;-63
2021/08/30 05:59:24;;;;;;;9.77;5.93;;;;;;;;;;7374777;19;20047;-62
2021/08/30 06:01:50;;;;;;;13.13;6.25;;;;;;;;;;7371351;19;20385;-62
2021/08/30 06:04:16;;;;;;;12.73;6.75;;;;;;;;;;7374455;19;20470;-63
2021/08/30 06:06:42;;;;;;;11.85;6.10;;;;;;;;;;7374380;19;20018;-62
2021/08/30 06:09:08;;;;;;;8.95;5.82;;;;;;;;;;7372065;19;20017;-63
2021/08/30 06:11:34;;;;;;;14.45;6.30;;;;;;;;;;7372999;19;20018;-63
2021/08/30 06:13:59;;;;;;;12.30;6.38;;;;;;;;;;7372025;19;20006;-63
2021/08/30 06:16:25;;;;;;;15.68;5.80;;;;;;;;;;7373951;19;20019;-62
2021/08/30 06:18:51;;;;;;;13.38;6.93;;;;;;;;;;7371987;19;20014;-62
2021/08/30 06:21:17;;;;;;;15.65;7.28;;;;;;;;;;7373198;19;20037;-63
2021/08/30 06:23:43;;;;;;;12.57;6.95;;;;;;;;;;7373997;19;20018;-63
2021/08/30 06:26:09;;;;;;;15.32;7.10;;;;;;;;;;7371317;19;20018;-63
2021/08/30 06:28:35;;;;;;;14.05;8.00;;;;;;;;;;7372778;19;20022;-63
2021/08/30 06:31:01;;;;;;;14.73;8.20;;;;;;;;;;7371768;19;20017;-62
2021/08/30 06:33:27;;;;;;;15.95;8.15;;;;;;;;;;7373780;19;20010;-62
2021/08/30 06:35:53;;;;;;;15.25;8.55;;;;;;;;;;7371040;19;20018;-63
2021/08/30 06:38:20;;;;;;;14.05;8.00;;;;;;;;;;7372374;19;20018;-62
2021/08/30 06:40:46;;;;;;;14.40;7.57;;;;;;;;;;7372334;19;20021;-62
2021/08/30 06:43:12;;;;;;;13.50;7.38;;;;;;;;;;7373498;19;20011;-62
2021/08/30 06:45:38;;;;;;;18.50;8.57;;;;;;;;;;7372907;19;20015;-63
2021/08/30 06:48:04;;;;;;;17.38;9.18;;;;;;;;;;7369109;19;20053;-63
2021/08/30 06:50:30;;;;;;;18.52;8.68;;;;;;;;;;7373764;19;20031;-62
2021/08/30 06:52:56;;;;;;;17.58;9.02;;;;;;;;;;7370612;19;20010;-62
2021/08/30 06:55:22;;;;;;;21.70;9.48;;;;;;;;;;7372648;19;20015;-62
2021/08/30 06:57:48;;;;;;;16.10;8.38;;;;;;;;;;7369551;19;20813;-63
2021/08/30 07:00:17;;;;;;;14.02;7.97;;;;;;;;;;7373943;19;20112;-63
2021/08/30 07:02:43;;;;;;;15.20;8.15;;;;;;;;;;7371252;19;20018;-63
2021/08/30 07:05:09;;;;;;;14.45;8.73;;;;;;;;;;7371146;19;20037;-63
2021/08/30 07:07:35;;;;;;;16.00;8.00;;;;;;;;;;7372394;19;20018;-63
2021/08/30 07:10:01;;;;;;;18.70;8.23;;;;;;;;;;7372396;19;20022;-63
2021/08/30 07:12:27;;;;;;;13.20;7.82;;;;;;;;;;7371559;19;20508;-63
2021/08/30 07:14:53;;;;;;;13.93;7.80;;;;;;;;;;7370877;19;20036;-63
2021/08/30 07:17:19;;;;;;;17.45;8.00;;;;;;;;;;7372384;19;20463;-63
2021/08/30 07:19:45;;;;;;;22.20;8.30;;;;;;;;;;7373450;19;20039;-63
2021/08/30 07:22:11;;;;;;;13.77;7.60;;;;;;;;;;7371439;19;20022;-62
2021/08/30 07:24:37;;;;;;;11.68;6.30;;;;;;;;;;7372512;19;20030;-63
2021/08/30 07:27:03;;;;;;;13.63;7.18;;;;;;;;;;7370916;19;20018;-62
2021/08/30 07:29:29;;;;;;;14.85;7.10;;;;;;;;;;7372696;19;20015;-63
2021/08/30 07:31:55;;;;;;;18.73;8.65;;;;;;;;;;7371123;19;20017;-63
2021/08/30 07:34:24;;;;;;;13.43;7.53;;;;;;;;;;7371553;19;20021;-62
2021/08/30 07:36:49;;;;;;;11.48;6.47;;;;;;;;;;7370907;19;20019;-62
2021/08/30 07:39:15;;;;;;;13.85;7.35;;;;;;;;;;7371661;19;20014;-63
2021/08/30 07:41:41;;;;;;;13.75;7.95;;;;;;;;;;7370450;19;20018;-62
2021/08/30 07:44:07;;;;;;;13.27;6.72;;;;;;;;;;7367929;19;20031;-62
2021/08/30 07:46:33;;;;;;;14.13;8.13;;;;;;;;;;7370317;19;20014;-62
2021/08/30 07:48:59;;;;;;;13.88;7.63;;;;;;;;;;7367815;19;20477;-62
2021/08/30 07:51:25;;;;;;;13.45;7.07;;;;;;;;;;7369516;19;20014;-62
2021/08/30 07:53:51;;;;;;;15.13;8.05;;;;;;;;;;7368726;19;20031;-62
2021/08/30 07:56:17;;;;;;;15.13;6.85;;;;;;;;;;7367870;19;20014;-62
2021/08/30 07:58:43;;;;;;;12.52;6.47;;;;;;;;;;7368857;19;20055;-62
2021/08/30 08:01:09;;;;;;;14.63;8.15;;;;;;;;;;7377200;19;20022;-62
2021/08/30 08:03:35;;;;;;;12.70;7.28;;;;;;;;;;7377264;19;20720;-62
2021/08/30 08:06:01;;;;;;;12.50;7.07;;;;;;;;;;7376388;19;20014;-62
2021/08/30 08:08:27;;;;;;;13.30;7.45;;;;;;;;;;7374383;19;20010;-62
2021/08/30 08:10:53;;;;;;;13.98;7.78;;;;;;;;;;7376337;19;20019;-62
2021/08/30 08:13:19;;;;;;;11.30;6.93;;;;;;;;;;7374092;19;20777;-62
2021/08/30 08:15:46;;;;;;;12.88;7.70;;;;;;;;;;7373310;19;20033;-61
2021/08/30 08:18:12;;;;;;;14.63;7.53;;;;;;;;;;7377026;19;20019;-63
2021/08/30 08:20:38;;;;;;;17.35;8.23;;;;;;;;;;7378381;19;20031;-62
2021/08/30 08:23:04;;;;;;;14.63;7.65;;;;;;;;;;7376490;19;20550;-62
2021/08/30 08:25:30;;;;;;;13.57;7.28;;;;;;;;;;7376573;19;20014;-62
2021/08/30 08:28:00;;;;;;;16.10;8.05;;;;;;;;;;7356747;19;20531;-62
2021/08/30 08:30:26;;;;;;;14.02;7.80;;;;;;;;;;7377821;19;20888;-64
2021/08/30 08:32:52;;;;;;;21.60;8.43;;;;;;;;;;7373794;19;20010;-62
2021/08/30 08:35:18;;;;;;;20.83;7.95;;;;;;;;;;7373303;19;20052;-61
2021/08/30 08:37:44;;;;;;;13.13;7.30;;;;;;;;;;7375210;19;20006;-63
2021/08/30 08:40:12;;;;;;;10.63;6.68;;;;;;;;;;7377554;19;20129;-61
2021/08/30 08:42:38;;;;;;;11.38;6.88;;;;;;;;;;7371872;19;20022;-65
2021/08/30 08:45:04;;;;;;;11.15;6.28;;;;;;;;;;7375603;19;20326;-65
2021/08/30 08:47:30;;;;;;;10.50;6.53;;;;;;;;;;7375527;19;20030;-65
2021/08/30 08:49:56;;;;;;;8.45;5.82;;;;;;;;;;7374710;19;20408;-66
2021/08/30 08:52:22;;;;;;;17.92;10.07;;;;;;;;;;7373957;19;20019;-65
2021/08/30 08:54:48;;;;;;;17.88;10.77;;;;;;;;;;7372883;19;20038;-65
2021/08/30 08:57:14;;;;;;;8.45;5.30;;;;;;;;;;7373796;19;20014;-65
2021/08/30 08:59:40;;;;;;;8.13;5.53;;;;;;;;;;7375172;19;20015;-65
2021/08/30 09:02:06;;;;;;;8.95;5.35;;;;;;;;;;7375234;19;20014;-64
2021/08/30 09:04:32;;;;;;;6.68;4.63;;;;;;;;;;7375828;19;20039;-65
2021/08/30 09:06:58;;;;;;;12.80;5.85;;;;;;;;;;7375411;19;20010;-65
2021/08/30 09:09:26;;;;;;;8.05;5.85;;;;;;;;;;7376194;19;20014;-65
2021/08/30 09:12:01;;;;;;;10.43;5.43;;;;;;;;;;7371599;19;20018;-62
2021/08/30 09:14:27;;;;;;;7.28;4.82;;;;;;;;;;7376405;19;20026;-62
2021/08/30 09:16:53;;;;;;;8.18;5.38;;;;;;;;;;7376877;19;20025;-62
2021/08/30 09:19:19;;;;;;;7.15;4.43;;;;;;;;;;7377708;19;20011;-62
2021/08/30 09:21:46;;;;;;;8.27;4.38;;;;;;;;;;7376311;19;20710;-62
2021/08/30 09:24:12;;;;;;;5.47;4.10;;;;;;;;;;7377393;19;20041;-62
2021/08/30 09:26:38;;;;;;;6.88;4.60;;;;;;;;;;7377176;19;20010;-70
2021/08/30 09:29:04;;;;;;;7.20;4.90;;;;;;;;;;7375082;19;20867;-69
2021/08/30 09:31:30;;;;;;;6.82;4.50;;;;;;;;;;7376574;19;20021;-69
2021/08/30 09:33:56;;;;;;;10.07;4.00;;;;;;;;;;7374494;19;20373;-69
2021/08/30 09:36:22;;;;;;;9.63;4.40;;;;;;;;;;7372864;19;20031;-69
2021/08/30 09:38:48;;;;;;;6.95;4.00;;;;;;;;;;7374321;19;20014;-69
2021/08/30 09:41:14;;;;;;;10.75;4.72;;;;;;;;;;7373696;19;20051;-70
2021/08/30 09:43:40;;;;;;;7.25;4.93;;;;;;;;;;7375996;19;20086;-69
2021/08/30 09:46:08;;;;;;;7.90;4.90;;;;;;;;;;7374536;19;20424;-68
2021/08/30 09:48:34;;;;;;;9.95;5.72;;;;;;;;;;7371862;19;20022;-67
2021/08/30 09:51:00;;;;;;;22.33;12.52;;;;;;;;;;7374533;19;20018;-68
2021/08/30 09:53:26;;;;;;;26.10;12.25;;;;;;;;;;7375660;19;20017;-67
2021/08/30 09:55:52;;;;;;;8.93;5.60;;;;;;;;;;7371717;19;20495;-68
2021/08/30 09:58:18;;;;;;;9.65;5.97;;;;;;;;;;7374230;19;20022;-67
2021/08/30 10:00:44;;;;;;;12.50;5.82;;;;;;;;;;7375449;19;20010;-67
2021/08/30 10:03:10;;;;;;;13.77;5.93;;;;;;;;;;7374880;19;20025;-67
2021/08/30 10:05:37;;;;;;;11.07;5.88;;;;;;;;;;7375271;19;20014;-67
2021/08/30 10:08:03;;;;;;;7.38;4.75;;;;;;;;;;7371188;19;20040;-67
2021/08/30 10:10:29;;;;;;;7.65;4.82;;;;;;;;;;7374587;19;20469;-67
2021/08/30 10:12:55;;;;;;;9.73;4.63;;;;;;;;;;7372534;19;20829;-67
2021/08/30 10:15:21;;;;;;;7.47;4.60;;;;;;;;;;7372515;19;20014;-67
2021/08/30 10:17:47;;;;;;;9.30;6.22;;;;;;;;;;7371957;19;20419;-67
2021/08/30 10:20:14;;;;;;;8.30;4.80;;;;;;;;;;7375206;19;20014;-67
2021/08/30 10:22:40;;;;;;;11.35;5.30;;;;;;;;;;7367755;19;20019;-68
2021/08/30 10:25:06;;;;;;;6.90;4.88;;;;;;;;;;7370845;19;20018;-67
2021/08/30 10:27:32;;;;;;;8.02;5.00;;;;;;;;;;7372754;19;20026;-67
2021/08/30 10:30:01;;;;;;;8.02;4.90;;;;;;;;;;7371143;19;20035;-67
2021/08/30 10:32:30;;;;;;;6.85;4.60;;;;;;;;;;7369910;19;20026;-67
2021/08/30 10:34:56;;;;;;;10.07;4.78;;;;;;;;;;7369513;19;20540;-67
2021/08/30 10:37:22;;;;;;;7.28;4.75;;;;;;;;;;7372707;19;20014;-67
2021/08/30 10:39:52;;;;;;;6.82;4.50;;;;;;;;;;7372981;19;20040;-67
2021/08/30 10:42:18;;;;;;;9.40;4.63;;;;;;;;;;7371050;19;20022;-67
2021/08/30 10:44:44;;;;;;;8.68;5.00;;;;;;;;;;7372828;19;20014;-67
2021/08/30 10:47:10;;;;;;;5.82;4.10;;;;;;;;;;7369176;19;20018;-68
2021/08/30 10:49:36;;;;;;;5.25;4.22;;;;;;;;;;7373775;19;20734;-67
2021/08/30 10:52:02;;;;;;;8.45;4.85;;;;;;;;;;7371187;19;20018;-67
2021/08/30 10:54:28;;;;;;;5.93;4.15;;;;;;;;;;7371749;19;20039;-68
2021/08/30 10:56:54;;;;;;;12.07;5.15;;;;;;;;;;7371394;19;20014;-67
2021/08/30 10:59:20;;;;;;;5.50;4.28;;;;;;;;;;7370663;19;20531;-67
2021/08/30 11:01:46;;;;;;;8.02;5.22;;;;;;;;;;7372782;19;20025;-67
2021/08/30 11:04:12;;;;;;;7.78;4.97;;;;;;;;;;7369273;19;20010;-67
2021/08/30 11:06:38;;;;;;;7.22;4.80;;;;;;;;;;7372825;19;20025;-68
2021/08/30 11:09:04;;;;;;;8.65;5.50;;;;;;;;;;7370534;19;20014;-67
2021/08/30 11:11:31;;;;;;;9.45;5.50;;;;;;;;;;7368966;19;20010;-67
2021/08/30 11:13:57;;;;;;;11.95;5.95;;;;;;;;;;7373233;19;20025;-67
2021/08/30 11:16:23;;;;;;;16.10;6.78;;;;;;;;;;7368300;19;20018;-68
2021/08/30 11:18:49;;;;;;;17.23;7.38;;;;;;;;;;7370574;19;20014;-67
2021/08/30 11:21:15;;;;;;;16.15;6.75;;;;;;;;;;7371053;19;20117;-67
2021/08/30 11:23:41;;;;;;;13.90;5.65;;;;;;;;;;7371396;19;20491;-67
2021/08/30 11:26:07;;;;;;;5.90;3.97;;;;;;;;;;7366942;19;20018;-68
2021/08/30 11:28:33;;;;;;;5.72;3.33;;;;;;;;;;7370169;19;20029;-68
2021/08/30 11:30:59;;;;;;;6.43;4.63;;;;;;;;;;7371634;19;20035;-68
2021/08/30 11:33:25;;;;;;;5.05;3.22;;;;;;;;;;7368071;19;20437;-68
2021/08/30 11:35:51;;;;;;;5.82;2.83;;;;;;;;;;7370177;19;20020;-67
2021/08/30 11:38:17;;;;;;;8.07;3.03;;;;;;;;;;7369572;19;20524;-68
2021/08/30 11:40:43;;;;;;;5.85;3.17;;;;;;;;;;7372198;19;20015;-68
2021/08/30 11:43:09;;;;;;;5.55;2.95;;;;;;;;;;7371516;19;20374;-67
2021/08/30 11:45:35;;;;;;;4.25;2.65;;;;;;;;;;7371458;19;20104;-67
2021/08/30 11:48:01;;;;;;;5.40;3.22;;;;;;;;;;7367842;19;20022;-67
2021/08/30 11:50:27;;;;;;;5.47;2.60;;;;;;;;;;7369432;19;20013;-67
2021/08/30 11:52:59;;;;;;;3.95;3.08;;;;;;;;;;7367701;19;20025;-67
2021/08/30 11:55:25;;;;;;;6.05;2.40;;;;;;;;;;7367096;19;20474;-68
2021/08/30 11:57:51;;;;;;;4.93;2.30;;;;;;;;;;7370229;19;20014;-68
2021/08/30 12:00:21;;;;;;;3.83;2.45;;;;;;;;;;7366205;19;20013;-68
2021/08/30 12:02:47;;;;;;;2.90;2.20;;;;;;;;;;7368392;19;20014;-68
2021/08/30 12:05:14;;;;;;;3.20;2.10;;;;;;;;;;7370115;19;20038;-68
2021/08/30 12:07:40;;;;;;;3.65;2.28;;;;;;;;;;7368773;19;20018;-68
2021/08/30 12:10:07;;;;;;;3.65;2.50;;;;;;;;;;7369412;19;20884;-68
2021/08/30 12:12:35;;;;;;;3.00;2.17;;;;;;;;;;7366792;19;20042;-68
2021/08/30 12:15:02;;;;;;;6.22;2.30;;;;;;;;;;7367748;19;20715;-68
2021/08/30 12:17:28;;;;;;;2.30;1.95;;;;;;;;;;7365380;19;20026;-68
2021/08/30 12:19:54;;;;;;;4.35;2.30;;;;;;;;;;7369923;19;20031;-67
2021/08/30 12:22:20;;;;;;;2.50;2.00;;;;;;;;;;7367652;19;20026;-67
2021/08/30 12:24:46;;;;;;;6.90;4.70;;;;;;;;;;7367691;19;20019;-68
2021/08/30 12:27:12;;;;;;;3.72;2.40;;;;;;;;;;7367887;19;20021;-68
2021/08/30 12:29:39;;;;;;;5.63;3.25;;;;;;;;;;7367612;19;20022;-68
2021/08/30 12:32:05;;;;;;;4.97;3.30;;;;;;;;;;7368564;19;20022;-67
2021/08/30 12:34:31;;;;;;;4.85;3.00;;;;;;;;;;7368585;19;20017;-67
2021/08/30 12:36:56;;;;;;;4.88;2.90;;;;;;;;;;7367225;19;20039;-67
2021/08/30 12:39:22;;;;;;;4.35;2.85;;;;;;;;;;7370335;19;20018;-68
2021/08/30 12:41:48;;;;;;;2.70;2.00;;;;;;;;;;7369955;19;20019;-68
2021/08/30 12:44:14;;;;;;;5.20;2.30;;;;;;;;;;7375123;19;20047;-68
2021/08/30 12:46:40;;;;;;;4.85;2.63;;;;;;;;;;7379025;19;20380;-67
2021/08/30 12:49:06;;;;;;;3.15;2.00;;;;;;;;;;7381988;19;20050;-67
2021/08/30 12:51:32;;;;;;;3.65;2.65;;;;;;;;;;7381180;19;20018;-68
2021/08/30 12:53:59;;;;;;;3.70;2.22;;;;;;;;;;7380812;19;20030;-68
2021/08/30 12:56:24;;;;;;;10.15;2.20;;;;;;;;;;7374740;19;20010;-67
2021/08/30 12:58:50;;;;;;;4.45;2.28;;;;;;;;;;7376337;19;20014;-67
2021/08/30 13:01:16;;;;;;;5.22;2.45;;;;;;;;;;7376479;19;20502;-68
2021/08/30 13:03:42;;;;;;;2.75;2.10;;;;;;;;;;7376143;19;20014;-68
2021/08/30 13:06:08;;;;;;;3.92;2.53;;;;;;;;;;7373484;19;20018;-68
2021/08/30 13:08:35;;;;;;;3.03;2.08;;;;;;;;;;7372610;19;20019;-67
2021/08/30 13:11:01;;;;;;;6.90;2.42;;;;;;;;;;7375139;19;20019;-67
2021/08/30 13:13:27;;;;;;;7.38;2.40;;;;;;;;;;7375024;19;20022;-67
2021/08/30 13:15:54;;;;;;;2.50;2.10;;;;;;;;;;7369397;19;20039;-67
2021/08/30 13:18:19;;;;;;;3.83;2.70;;;;;;;;;;7374400;19;20018;-67
2021/08/30 13:20:50;;;;;;;7.78;2.33;;;;;;;;;;7373125;19;20022;-67
2021/08/30 13:23:16;;;;;;;5.55;2.92;;;;;;;;;;7374672;19;20022;-67
2021/08/30 13:25:45;;;;;;;3.90;2.58;;;;;;;;;;7373756;19;20652;-67
2021/08/30 13:28:11;;;;;;;3.70;2.72;;;;;;;;;;7374795;19;20046;-67
2021/08/30 13:30:37;;;;;;;7.28;3.50;;;;;;;;;;7375999;19;20044;-67
2021/08/30 13:33:04;;;;;;;5.78;2.72;;;;;;;;;;7374259;19;21058;-67
2021/08/30 13:35:30;;;;;;;4.05;3.00;;;;;;;;;;7375782;19;20033;-67
2021/08/30 13:37:56;;;;;;;4.60;2.97;;;;;;;;;;7374526;19;20014;-67
2021/08/30 13:40:22;;;;;;;7.53;2.58;;;;;;;;;;7377946;19;20022;-67
2021/08/30 13:42:48;;;;;;;6.95;2.40;;;;;;;;;;7374896;19;20344;-67
2021/08/30 13:45:14;;;;;;;8.00;2.60;;;;;;;;;;7375657;19;20018;-67
2021/08/30 13:47:40;;;;;;;3.95;2.47;;;;;;;;;;7375950;19;20022;-67
2021/08/30 13:50:06;;;;;;;7.30;2.67;;;;;;;;;;7374500;19;20082;-67
2021/08/30 13:52:32;;;;;;;13.50;2.88;;;;;;;;;;7373988;19;20394;-67
2021/08/30 13:54:58;;;;;;;5.93;2.70;;;;;;;;;;7373388;19;20048;-68
2021/08/30 13:57:24;;;;;;;4.45;2.45;;;;;;;;;;7373389;19;20801;-67
2021/08/30 13:59:50;;;;;;;5.90;2.58;;;;;;;;;;7374368;19;20015;-68
2021/08/30 14:02:16;;;;;;;6.13;2.33;;;;;;;;;;7372329;19;20030;-68
2021/08/30 14:04:42;;;;;;;3.05;2.35;;;;;;;;;;7375461;19;20018;-68
2021/08/30 14:07:09;;;;;;;4.80;2.63;;;;;;;;;;7371189;19;20023;-68
2021/08/30 14:09:35;;;;;;;4.30;2.42;;;;;;;;;;7375548;19;20025;-67
2021/08/30 14:12:02;;;;;;;8.45;2.83;;;;;;;;;;7374042;19;20006;-67
2021/08/30 14:14:28;;;;;;;4.90;2.45;;;;;;;;;;7373525;19;20109;-67
2021/08/30 14:16:54;;;;;;;5.72;2.58;;;;;;;;;;7374097;19;20544;-67
2021/08/30 14:19:20;;;;;;;5.40;3.10;;;;;;;;;;7372991;19;20006;-67
2021/08/30 14:21:46;;;;;;;5.30;2.78;;;;;;;;;;7373666;19;20022;-67
2021/08/30 14:24:12;;;;;;;6.93;2.90;;;;;;;;;;7374125;19;20456;-67
2021/08/30 14:26:38;;;;;;;6.28;3.13;;;;;;;;;;7374680;19;20022;-67
2021/08/30 14:29:04;;;;;;;5.70;3.33;;;;;;;;;;7373107;19;20130;-68
2021/08/30 14:31:30;;;;;;;6.78;3.90;;;;;;;;;;7374882;19;20029;-68
2021/08/30 14:33:57;;;;;;;12.80;5.30;;;;;;;;;;7375156;19;20018;-68
2021/08/30 14:36:24;;;;;;;14.68;5.47;;;;;;;;;;7371620;19;20040;-68
2021/08/30 14:38:50;;;;;;;13.23;4.75;;;;;;;;;;7373467;19;20015;-68
2021/08/30 14:41:16;;;;;;;6.90;3.90;;;;;;;;;;7373936;19;20131;-68